Time;durP1;ratioP1;P1;durP2;ratioP2;P2;SDS_P1;SDS_P2;PMS_P1;PMS_P2;Temp;Humidity;BMP_temperature;BMP_pressure;BME280_temperature;BME280_humidity;BME280_pressure;Samples;Min_cycle;Max_cycle;Signal;HPM_P1;HPM_P2
2023/07/27 00:00:31;;;;;;;2.73;2.50;;;19.90;90.10;;;;;;4941022;28;20469;-82
2023/07/27 00:03:29;;;;;;;2.23;2.03;;;19.90;89.70;;;;;;4938650;28;20484;-81
2023/07/27 00:06:11;;;;;;;2.67;2.03;;;19.80;90.00;;;;;;4937836;28;20488;-81
2023/07/27 00:09:05;;;;;;;2.70;2.50;;;19.80;90.00;;;;;;4929814;28;21105;-81
2023/07/27 00:11:55;;;;;;;2.93;1.83;;;19.80;89.70;;;;;;4938952;28;21004;-83
2023/07/27 00:14:36;;;;;;;1.90;1.80;;;19.90;90.00;;;;;;4941468;29;20960;-81
2023/07/27 00:20:57;;;;;;;3.20;2.50;;;19.80;90.60;;;;;;4939759;28;20465;-85
2023/07/27 00:24:01;;;;;;;;;;;;;;;;;;;;;
2023/07/27 00:26:42;;;;;;;3.00;2.50;;;19.60;90.90;;;;;;4946636;28;20638;-82
2023/07/27 00:29:45;;;;;;;2.27;2.07;;;19.50;91.10;;;;;;4939836;28;20493;-83
2023/07/27 00:32:25;;;;;;;4.00;2.77;;;19.60;91.10;;;;;;4942424;28;20488;-85
2023/07/27 00:35:10;;;;;;;2.40;2.20;;;19.60;91.00;;;;;;4942901;28;20457;-84
2023/07/27 00:37:59;;;;;;;;;;;;;;;;;;;;;
2023/07/27 00:41:00;;;;;;;2.90;2.37;;;19.40;91.00;;;;;;4943478;29;20648;-86
2023/07/27 00:43:55;;;;;;;;;;;;;;;;;;;;;
2023/07/27 00:46:32;;;;;;;2.27;2.10;;;19.40;91.10;;;;;;4941908;28;21008;-84
2023/07/27 00:49:35;;;;;;;2.80;2.20;;;19.40;91.00;;;;;;4943305;29;20562;-85
2023/07/27 00:52:27;;;;;;;;;;;;;;;;;;;;;
2023/07/27 00:55:19;;;;;;;2.33;2.13;;;19.30;91.00;;;;;;4949559;28;20512;-84
2023/07/27 00:58:01;;;;;;;2.90;2.27;;;19.30;90.90;;;;;;4950710;28;20659;-83
2023/07/27 01:00:42;;;;;;;2.50;1.83;;;19.30;90.80;;;;;;4952628;28;20556;-83
2023/07/27 01:03:25;;;;;;;2.97;2.40;;;19.40;90.60;;;;;;4947852;28;20465;-83
2023/07/27 01:06:32;;;;;;;2.17;1.90;;;19.20;90.50;;;;;;4950716;28;20456;-83
2023/07/27 01:09:07;;;;;;;2.80;2.10;;;19.40;90.50;;;;;;4950708;28;20481;-83
2023/07/27 01:12:21;;;;;;;2.80;2.43;;;19.30;90.20;;;;;;4962345;28;20560;-83
2023/07/27 01:15:30;;;;;;;2.83;2.47;;;19.40;90.30;;;;;;4960188;28;20528;-83
2023/07/27 01:18:28;;;;;;;2.60;1.90;;;19.40;90.00;;;;;;4955580;28;20531;-83
2023/07/27 01:21:15;;;;;;;2.10;1.90;;;19.40;90.00;;;;;;4954257;28;20481;-85
2023/07/27 01:24:02;;;;;;;3.37;2.30;;;19.30;89.90;;;;;;4945700;28;20543;-85
2023/07/27 01:27:01;;;;;;;2.33;1.80;;;19.50;89.80;;;;;;4940984;29;20496;-84
2023/07/27 01:30:17;;;;;;;2.57;2.33;;;19.50;90.00;;;;;;4939012;28;21175;-84
2023/07/27 01:33:11;;;;;;;3.03;2.73;;;19.50;89.90;;;;;;4953058;28;20557;-85
2023/07/27 01:36:13;;;;;;;2.40;2.20;;;19.40;90.20;;;;;;4944648;28;20541;-82
2023/07/27 01:38:48;;;;;;;3.77;2.37;;;19.40;90.10;;;;;;4945256;28;20465;-81
2023/07/27 01:41:23;;;;;;;3.30;2.20;;;19.20;90.20;;;;;;4941009;28;20564;-83
2023/07/27 01:44:14;;;;;;;3.00;2.47;;;19.30;90.30;;;;;;4944573;28;20579;-86
2023/07/27 01:47:47;;;;;;;4.50;2.27;;;19.50;90.10;;;;;;4942684;28;20463;-83
2023/07/27 01:50:39;;;;;;;2.80;2.17;;;19.40;90.00;;;;;;4969786;28;22120;-82
2023/07/27 01:53:42;;;;;;;3.00;2.47;;;19.30;89.90;;;;;;4960605;28;20445;-81
2023/07/27 02:00:06;;;;;;;2.40;1.90;;;19.50;90.30;;;;;;4955357;28;20453;-81
2023/07/27 02:02:54;;;;;;;4.00;2.37;;;19.60;90.50;;;;;;4945161;28;20483;-80
2023/07/27 02:05:53;;;;;;;3.93;2.60;;;19.50;90.70;;;;;;4939500;28;20836;-84
2023/07/27 02:08:47;;;;;;;3.30;2.20;;;19.40;91.00;;;;;;4957344;28;20484;-84
2023/07/27 02:11:26;;;;;;;4.93;2.60;;;19.40;90.60;;;;;;4941382;28;20477;-81
2023/07/27 02:14:30;;;;;;;3.03;2.33;;;19.30;90.90;;;;;;4930656;28;20827;-83
2023/07/27 02:17:16;;;;;;;3.13;2.50;;;19.30;90.80;;;;;;4940905;28;20499;-84
2023/07/27 02:20:11;;;;;;;2.63;2.43;;;19.40;90.60;;;;;;4956969;28;20469;-84
2023/07/27 02:23:31;;;;;;;2.40;2.20;;;19.40;90.50;;;;;;4941078;29;20626;-83
2023/07/27 02:26:09;;;;;;;2.43;2.23;;;19.30;90.70;;;;;;4940939;28;20860;-82
2023/07/27 02:28:56;;;;;;;2.17;1.97;;;19.40;90.40;;;;;;4954091;28;20850;-83
2023/07/27 02:31:46;;;;;;;2.77;2.47;;;19.40;90.50;;;;;;4974542;23;20522;-82
2023/07/27 02:34:35;;;;;;;3.20;2.00;;;19.50;90.40;;;;;;4969014;28;20552;-81
2023/07/27 02:37:09;;;;;;;5.70;3.27;;;19.50;90.20;;;;;;4975137;28;20464;-82
2023/07/27 02:40:08;;;;;;;3.23;2.53;;;19.40;90.10;;;;;;4959824;28;20455;-84
2023/07/27 02:43:08;;;;;;;4.10;2.90;;;19.40;89.90;;;;;;4938484;28;20483;-81
2023/07/27 02:46:08;;;;;;;3.00;2.37;;;19.50;90.20;;;;;;4904106;29;20465;-84
2023/07/27 02:48:56;;;;;;;3.40;2.10;;;19.40;90.10;;;;;;4937872;28;20500;-83
2023/07/27 02:51:36;;;;;;;2.13;1.93;;;19.40;90.00;;;;;;4935885;28;20484;-84
2023/07/27 02:54:30;;;;;;;2.67;2.47;;;19.50;90.30;;;;;;4937794;28;20483;-82
2023/07/27 02:57:06;;;;;;;2.60;2.40;;;19.40;90.70;;;;;;4953386;28;20460;-82
2023/07/27 02:59:46;;;;;;;2.90;2.30;;;19.40;91.00;;;;;;4956772;28;20475;-83
2023/07/27 03:02:19;;;;;;;2.83;2.53;;;19.10;91.90;;;;;;4939872;28;21228;-84
2023/07/27 03:05:09;;;;;;;4.53;2.70;;;19.00;92.90;;;;;;4939891;28;20457;-82
2023/07/27 03:07:52;;;;;;;2.70;2.10;;;19.10;93.70;;;;;;4941063;29;20464;-82
2023/07/27 03:10:36;;;;;;;3.00;2.10;;;19.20;94.20;;;;;;4940203;28;20568;-83
2023/07/27 03:13:15;;;;;;;6.10;2.93;;;19.20;94.80;;;;;;4937835;28;21026;-81
2023/07/27 03:16:00;;;;;;;2.90;2.60;;;19.10;95.30;;;;;;4939090;28;20473;-84
2023/07/27 03:18:45;;;;;;;3.20;2.83;;;19.00;95.60;;;;;;4941589;28;20494;-85
2023/07/27 03:21:35;;;;;;;3.00;2.60;;;18.90;96.00;;;;;;4948969;28;20495;-83
2023/07/27 03:24:23;;;;;;;2.87;2.33;;;18.80;96.80;;;;;;4895560;28;20457;-83
2023/07/27 03:27:05;;;;;;;2.60;2.40;;;18.70;96.80;;;;;;4936452;28;20464;-82
2023/07/27 03:29:55;;;;;;;3.30;2.50;;;18.60;97.20;;;;;;4945524;28;21083;-81
2023/07/27 03:32:40;;;;;;;3.40;2.53;;;18.60;97.40;;;;;;4942894;28;20706;-82
2023/07/27 03:35:42;;;;;;;2.70;2.23;;;18.60;97.60;;;;;;4946157;28;20475;-83
2023/07/27 03:38:18;;;;;;;2.73;2.53;;;18.50;98.30;;;;;;4939216;29;20588;-83
2023/07/27 03:41:26;;;;;;;4.00;2.17;;;18.50;98.10;;;;;;4942879;28;20491;-81
2023/07/27 03:44:03;;;;;;;6.40;3.23;;;18.40;98.00;;;;;;4955849;28;20464;-84
2023/07/27 03:46:49;;;;;;;4.00;2.80;;;18.40;98.50;;;;;;4942422;29;20491;-84
2023/07/27 03:49:34;;;;;;;3.10;2.47;;;18.50;98.60;;;;;;4945753;28;20600;-85
2023/07/27 03:52:18;;;;;;;2.87;2.57;;;18.40;98.80;;;;;;4944336;28;20547;-81
2023/07/27 03:55:07;;;;;;;3.33;3.03;;;18.40;99.10;;;;;;4945977;28;20508;-82
2023/07/27 03:57:59;;;;;;;5.00;2.60;;;18.40;99.30;;;;;;4955458;28;20480;-82
2023/07/27 04:00:41;;;;;;;2.50;2.30;;;18.30;99.60;;;;;;4964695;28;21039;-84
2023/07/27 04:03:41;;;;;;;2.80;2.50;;;18.30;99.90;;;;;;4953062;28;21773;-85
2023/07/27 04:06:17;;;;;;;3.07;2.67;;;18.10;99.90;;;;;;4957197;28;20571;-81
2023/07/27 04:08:50;;;;;;;3.20;2.47;;;17.90;99.90;;;;;;4963348;28;20508;-82
2023/07/27 04:11:26;;;;;;;3.20;2.73;;;17.80;99.90;;;;;;4965914;28;21500;-81
2023/07/27 04:13:58;;;;;;;2.63;2.40;;;17.80;99.90;;;;;;4967736;28;20460;-83
2023/07/27 04:16:49;;;;;;;2.97;2.77;;;17.70;99.90;;;;;;4953453;28;20531;-83
2023/07/27 04:19:34;;;;;;;5.70;3.10;;;17.80;99.90;;;;;;4972772;28;22193;-84
2023/07/27 04:22:27;;;;;;;3.40;2.67;;;17.60;99.90;;;;;;4950544;28;20488;-82
2023/07/27 04:25:08;;;;;;;4.37;2.77;;;17.50;99.90;;;;;;4948956;28;20453;-83
2023/07/27 04:27:40;;;;;;;3.30;3.00;;;17.50;99.90;;;;;;4943714;29;20512;-80
2023/07/27 04:30:15;;;;;;;2.70;2.50;;;17.40;99.90;;;;;;4945859;28;20503;-81
2023/07/27 04:32:50;;;;;;;2.90;2.70;;;17.40;99.90;;;;;;4989669;23;20997;-83
2023/07/27 04:35:24;;;;;;;3.20;2.57;;;17.50;99.90;;;;;;4971799;28;20500;-82
2023/07/27 04:38:11;;;;;;;3.43;3.13;;;17.60;99.90;;;;;;4984203;28;21015;-82
2023/07/27 04:40:41;;;;;;;4.47;3.10;;;17.50;99.90;;;;;;4981976;28;20534;-81
2023/07/27 04:43:16;;;;;;;4.33;2.83;;;17.40;99.90;;;;;;4978053;28;20536;-84
2023/07/27 04:45:58;;;;;;;3.60;2.87;;;17.40;99.90;;;;;;4971229;28;22292;-84
2023/07/27 04:48:46;;;;;;;4.53;2.77;;;17.30;99.90;;;;;;4971204;28;20503;-83
2023/07/27 04:51:40;;;;;;;6.53;2.63;;;17.20;99.90;;;;;;4967625;28;20463;-82
2023/07/27 04:54:17;;;;;;;5.17;2.77;;;17.20;99.90;;;;;;4965124;28;20447;-80
2023/07/27 04:56:54;;;;;;;4.50;3.27;;;16.90;99.90;;;;;;4968623;28;22915;-83
2023/07/27 04:59:30;;;;;;;3.40;3.00;;;16.90;99.90;;;;;;4983909;28;20936;-83
2023/07/27 05:02:05;;;;;;;2.30;2.10;;;16.90;99.90;;;;;;4981776;28;20831;-82
2023/07/27 05:04:37;;;;;;;5.50;3.33;;;16.90;99.90;;;;;;4968960;28;20490;-84
2023/07/27 05:07:40;;;;;;;3.43;2.83;;;17.10;99.90;;;;;;4965998;28;20989;-86
2023/07/27 05:10:27;;;;;;;6.80;3.40;;;17.00;99.90;;;;;;4966596;28;20511;-85
2023/07/27 05:12:58;;;;;;;4.77;3.80;;;17.00;99.90;;;;;;4967812;28;20463;-83
2023/07/27 05:15:26;;;;;;;3.30;3.00;;;16.80;99.90;;;;;;4981170;28;20463;-85
2023/07/27 05:18:06;;;;;;;5.33;3.60;;;16.80;99.90;;;;;;4968508;28;20458;-82
2023/07/27 05:20:47;;;;;;;6.20;3.07;;;16.90;99.90;;;;;;4968131;28;20483;-84
2023/07/27 05:23:30;;;;;;;4.57;3.60;;;16.80;99.90;;;;;;4967166;28;20478;-84
2023/07/27 05:26:15;;;;;;;3.50;3.20;;;16.70;99.90;;;;;;4967895;28;20480;-85
2023/07/27 05:28:46;;;;;;;3.50;3.20;;;16.70;99.90;;;;;;4982399;28;20491;-85
2023/07/27 05:31:24;;;;;;;4.70;3.70;;;17.00;99.90;;;;;;4972046;28;20975;-82
2023/07/27 05:34:00;;;;;;;4.80;2.70;;;17.00;99.90;;;;;;4969753;28;20507;-85
2023/07/27 05:36:41;;;;;;;6.53;5.03;;;16.90;99.90;;;;;;4969014;28;20459;-83
2023/07/27 05:39:16;;;;;;;4.23;3.50;;;16.90;99.90;;;;;;4982498;28;20471;-84
2023/07/27 05:41:52;;;;;;;4.33;3.73;;;16.90;99.90;;;;;;4971325;28;20491;-85
2023/07/27 05:44:24;;;;;;;3.60;2.83;;;16.90;99.90;;;;;;4984936;28;20459;-84
2023/07/27 05:46:56;;;;;;;4.50;3.20;;;16.90;99.90;;;;;;4984004;28;20518;-83
2023/07/27 05:49:35;;;;;;;4.50;2.90;;;16.80;99.90;;;;;;4967320;28;20482;-81
2023/07/27 05:52:27;;;;;;;4.50;3.43;;;16.70;99.90;;;;;;4968304;28;20478;-85
2023/07/27 05:55:02;;;;;;;4.20;3.53;;;16.70;99.90;;;;;;4976356;28;20470;-83
2023/07/27 05:57:43;;;;;;;4.10;3.70;;;16.70;99.90;;;;;;4969418;28;20529;-82
2023/07/27 06:00:13;;;;;;;3.70;3.23;;;16.70;99.90;;;;;;4982539;28;20505;-85
2023/07/27 06:02:46;;;;;;;3.33;3.00;;;16.70;99.90;;;;;;4965939;28;20576;-82
2023/07/27 06:05:12;;;;;;;4.23;3.33;;;16.70;99.90;;;;;;4969846;28;20928;-86
2023/07/27 06:07:45;;;;;;;2.80;2.60;;;16.60;99.90;;;;;;4996274;28;20435;-83
2023/07/27 06:10:30;;;;;;;4.00;3.43;;;16.70;99.90;;;;;;4989461;28;20487;-83
2023/07/27 06:13:01;;;;;;;3.93;2.70;;;16.70;99.90;;;;;;4990157;28;20484;-83
2023/07/27 06:15:59;;;;;;;4.13;2.90;;;16.40;99.90;;;;;;5004792;28;20455;-83
2023/07/27 06:18:40;;;;;;;6.60;3.20;;;16.60;99.90;;;;;;4971647;28;20463;-83
2023/07/27 06:21:13;;;;;;;3.30;3.10;;;16.70;99.90;;;;;;4980072;28;20562;-82
2023/07/27 06:23:40;;;;;;;3.80;3.50;;;16.60;99.90;;;;;;4967325;28;20574;-82
2023/07/27 06:26:10;;;;;;;5.10;4.03;;;16.70;99.90;;;;;;4981425;28;20470;-83
2023/07/27 06:28:39;;;;;;;3.80;3.50;;;16.70;99.90;;;;;;4967585;28;20455;-83
2023/07/27 06:31:06;;;;;;;4.50;3.37;;;16.70;99.90;;;;;;4980566;28;20502;-84
2023/07/27 06:33:43;;;;;;;3.47;3.17;;;16.70;99.90;;;;;;4978778;28;20482;-81
2023/07/27 06:36:14;;;;;;;3.43;3.13;;;16.80;99.90;;;;;;4969275;28;20467;-83
2023/07/27 06:38:41;;;;;;;4.70;3.47;;;16.70;99.90;;;;;;4983585;28;21164;-83
2023/07/27 06:41:08;;;;;;;5.10;3.23;;;16.80;99.90;;;;;;4981299;28;20485;-82
2023/07/27 06:43:34;;;;;;;4.10;3.80;;;16.80;99.90;;;;;;4979245;28;20467;-82
2023/07/27 06:46:01;;;;;;;5.30;4.13;;;16.70;99.90;;;;;;4968204;28;20990;-84
2023/07/27 06:48:28;;;;;;;8.00;4.20;;;16.70;99.90;;;;;;4982493;28;20466;-85
2023/07/27 06:50:55;;;;;;;6.13;4.00;;;16.80;99.90;;;;;;4967413;28;20482;-82
2023/07/27 06:53:22;;;;;;;4.60;4.20;;;16.80;99.90;;;;;;4969661;28;20601;-83
2023/07/27 06:55:49;;;;;;;4.87;4.37;;;16.80;99.90;;;;;;4986917;28;20581;-85
2023/07/27 06:58:16;;;;;;;8.73;4.47;;;17.00;99.90;;;;;;4983005;28;20443;-81
2023/07/27 07:00:44;;;;;;;6.33;4.40;;;17.00;99.90;;;;;;4988411;28;20545;-82
2023/07/27 07:03:11;;;;;;;5.00;3.70;;;17.10;99.90;;;;;;5004872;28;20475;-82
2023/07/27 07:05:38;;;;;;;4.93;4.43;;;17.10;99.90;;;;;;4992341;28;20770;-81
2023/07/27 07:08:04;;;;;;;5.43;3.63;;;17.10;99.90;;;;;;4993461;28;20470;-82
2023/07/27 07:10:31;;;;;;;4.43;4.03;;;17.20;99.90;;;;;;5005559;28;20483;-81
2023/07/27 07:12:58;;;;;;;4.43;4.03;;;17.20;99.90;;;;;;4988199;28;20459;-81
2023/07/27 07:15:45;;;;;;;3.93;3.63;;;17.20;99.90;;;;;;4985651;28;20485;-83
2023/07/27 07:18:19;;;;;;;4.33;3.90;;;17.20;99.90;;;;;;4990880;28;20481;-81
2023/07/27 07:20:52;;;;;;;5.00;3.93;;;17.40;99.90;;;;;;4998690;28;20510;-81
2023/07/27 07:23:33;;;;;;;4.90;3.33;;;17.40;99.90;;;;;;4984091;28;20462;-82
2023/07/27 07:26:00;;;;;;;5.20;3.63;;;17.40;99.90;;;;;;4982551;28;20477;-84
2023/07/27 07:28:30;;;;;;;4.77;2.90;;;17.50;99.90;;;;;;4980505;28;20463;-84
2023/07/27 07:31:09;;;;;;;3.83;3.30;;;17.50;99.90;;;;;;4977853;28;20491;-82
2023/07/27 07:33:39;;;;;;;5.27;3.93;;;17.50;99.90;;;;;;4978829;28;20554;-83
2023/07/27 07:36:27;;;;;;;3.50;3.20;;;17.50;99.90;;;;;;4966255;28;20467;-84
2023/07/27 07:38:56;;;;;;;4.47;3.50;;;17.50;99.90;;;;;;4962588;28;21015;-82
2023/07/27 07:41:23;;;;;;;3.20;2.90;;;17.60;99.90;;;;;;4961365;28;20502;-84
2023/07/27 07:43:56;;;;;;;2.97;2.77;;;17.60;99.90;;;;;;4967981;28;20451;-84
2023/07/27 07:46:32;;;;;;;3.47;3.17;;;17.60;99.90;;;;;;4968043;28;21071;-84
2023/07/27 07:49:01;;;;;;;3.80;3.03;;;17.70;99.90;;;;;;4969739;28;20446;-82
2023/07/27 07:51:31;;;;;;;3.47;2.93;;;17.60;99.90;;;;;;4981547;28;20483;-82
2023/07/27 07:54:08;;;;;;;3.43;3.10;;;17.60;99.90;;;;;;4968013;28;20517;-83
2023/07/27 07:56:48;;;;;;;3.40;2.60;;;17.60;99.90;;;;;;4966607;28;20530;-82
2023/07/27 07:59:31;;;;;;;3.30;3.00;;;17.60;99.90;;;;;;4968889;28;20447;-81
2023/07/27 08:02:22;;;;;;;3.27;2.93;;;17.50;99.90;;;;;;4970661;28;20475;-83
2023/07/27 08:04:56;;;;;;;3.00;2.70;;;17.60;99.90;;;;;;4959943;28;20509;-81
2023/07/27 08:07:24;;;;;;;3.93;2.77;;;17.70;99.90;;;;;;4976007;28;20471;-83
2023/07/27 08:10:06;;;;;;;2.97;2.57;;;17.70;99.90;;;;;;4985157;28;20482;-83
2023/07/27 08:12:50;;;;;;;3.00;2.33;;;17.80;99.90;;;;;;4982101;28;20462;-83
2023/07/27 08:15:24;;;;;;;2.63;2.43;;;17.80;99.90;;;;;;4968030;28;20470;-84
2023/07/27 08:18:12;;;;;;;2.90;2.63;;;18.00;99.90;;;;;;4967996;28;20482;-81
2023/07/27 08:21:11;;;;;;;5.10;3.20;;;18.00;99.90;;;;;;4968457;28;20568;-81
2023/07/27 08:23:48;;;;;;;5.73;4.07;;;17.90;99.90;;;;;;4968137;28;20829;-83
2023/07/27 08:26:35;;;;;;;5.00;4.50;;;17.80;99.90;;;;;;4985574;28;20474;-84
2023/07/27 08:29:26;;;;;;;8.13;6.20;;;17.80;99.90;;;;;;4965247;28;20459;-83
2023/07/27 08:31:58;;;;;;;4.57;3.53;;;17.60;99.90;;;;;;4962295;28;20563;-83
2023/07/27 08:34:42;;;;;;;3.87;3.50;;;17.70;99.90;;;;;;4965777;28;20652;-83
2023/07/27 08:37:14;;;;;;;6.03;4.10;;;17.70;99.90;;;;;;4960303;28;20537;-82
2023/07/27 08:39:51;;;;;;;3.53;3.17;;;17.80;99.90;;;;;;4963935;28;20551;-83
2023/07/27 08:42:47;;;;;;;4.97;4.57;;;18.00;99.90;;;;;;4975754;28;20482;-82
2023/07/27 08:45:26;;;;;;;7.53;4.10;;;18.00;99.90;;;;;;4958364;28;20496;-83
2023/07/27 08:48:05;;;;;;;3.50;3.20;;;18.10;99.90;;;;;;4959695;28;20866;-81
2023/07/27 08:50:52;;;;;;;4.90;3.47;;;18.10;99.90;;;;;;4951913;28;21207;-84
2023/07/27 08:53:34;;;;;;;5.70;3.43;;;18.10;99.90;;;;;;4976576;28;20467;-84
2023/07/27 08:56:18;;;;;;;4.00;3.10;;;18.10;99.90;;;;;;4964127;28;20466;-82
2023/07/27 08:58:53;;;;;;;4.47;3.57;;;18.10;99.90;;;;;;4962818;28;20530;-82
2023/07/27 09:01:36;;;;;;;3.13;2.70;;;18.00;99.90;;;;;;4964166;28;20510;-82
2023/07/27 09:04:15;;;;;;;3.67;3.33;;;18.10;99.90;;;;;;4978186;28;20469;-82
2023/07/27 09:06:50;;;;;;;3.10;2.70;;;18.20;99.90;;;;;;4974570;28;20467;-80
2023/07/27 09:09:33;;;;;;;3.67;3.10;;;18.20;99.90;;;;;;4959846;28;20462;-82
2023/07/27 09:12:19;;;;;;;4.30;3.90;;;18.20;99.90;;;;;;4962589;28;20482;-81
2023/07/27 09:14:59;;;;;;;3.97;3.57;;;18.20;99.90;;;;;;4965042;28;20459;-82
2023/07/27 09:17:49;;;;;;;3.40;3.10;;;18.20;99.90;;;;;;4976824;28;20462;-83
2023/07/27 09:20:38;;;;;;;3.90;3.20;;;18.30;99.90;;;;;;4965862;28;20612;-82
2023/07/27 09:23:22;;;;;;;4.27;3.80;;;18.20;99.90;;;;;;4961850;28;20474;-81
2023/07/27 09:26:58;;;;;;;;;;;;;;;;;;;;;
2023/07/27 09:30:35;;;;;;;4.10;3.80;;;18.20;99.90;;;;;;4960345;28;20489;-80
2023/07/27 09:34:18;;;;;;;4.23;3.80;;;18.20;99.90;;;;;;4961231;28;20454;-82
2023/07/27 09:38:29;;;;;;;;;;;;;;;;;;;;;
2023/07/27 09:41:54;;;;;;;4.47;4.07;;;18.30;99.90;;;;;;4878925;29;20953;-81
2023/07/27 10:05:14;;;;;;;;;;;;;;;;;;;;;
2023/07/27 10:15:43;;;;;;;4.13;3.83;;;18.50;99.90;;;;;;4951737;28;20432;-82
2023/07/27 10:20:03;;;;;;;4.10;3.70;;;18.60;99.90;;;;;;4891562;29;20458;-84
2023/07/27 11:25:41;;;;;;;1.70;1.60;;;19.40;99.90;;;;;;4817571;29;20518;-83
2023/07/27 11:47:50;;;;;;;;;;;;;;;;;;;;;
2023/07/27 12:58:48;;;;;;;1.20;1.00;;;19.90;99.90;;;;;;4915532;29;20485;-83
2023/07/27 13:17:05;;;;;;;1.40;0.73;;;20.00;99.90;;;;;;4730440;30;20674;-84
2023/07/27 14:58:31;;;;;;;;;;;;;;;;;;;;;
2023/07/27 15:02:29;;;;;;;0.50;0.50;;;20.40;99.90;;;;;;4811266;29;20552;-82
2023/07/27 15:49:18;;;;;;;0.50;0.50;;;20.50;99.90;;;;;;5328683;23;20493;-84
2023/07/27 18:06:12;;;;;;;;;;;;;;;;;;;;;
2023/07/27 18:17:56;;;;;;;0.90;0.70;;;19.70;99.90;;;;;;4798690;29;20540;-84
2023/07/27 18:37:03;;;;;;;1.00;0.90;;;19.70;99.90;;;;;;4977180;28;20563;-83
2023/07/27 18:49:08;;;;;;;1.80;1.70;;;19.70;99.90;;;;;;4871718;29;20522;-83
2023/07/27 18:52:22;;;;;;;;;;;;;;;;;;;;;
2023/07/27 18:56:22;;;;;;;;;;;;;;;;;;;;;
2023/07/27 19:02:57;;;;;;;1.67;1.30;;;19.70;99.90;;;;;;4727352;30;20451;-84
2023/07/27 19:06:26;;;;;;;2.80;1.20;;;19.80;99.90;;;;;;4725966;30;20458;-84
2023/07/27 19:10:23;;;;;;;;;;;;;;;;;;;;;
2023/07/27 19:17:49;;;;;;;;;;;;;;;;;;;;;
2023/07/27 19:21:15;;;;;;;;;;;;;;;;;;;;;
2023/07/27 19:24:42;;;;;;;;;;;;;;;;;;;;;
2023/07/27 19:35:53;;;;;;;1.87;1.43;;;19.60;99.90;;;;;;4717428;30;20454;-82
2023/07/27 20:06:36;;;;;;;1.00;1.00;;;19.60;99.90;;;;;;1383630;26;20494;-85
2023/07/27 20:13:46;;;;;;;1.40;1.30;;;19.60;99.90;;;;;;4962454;28;20513;-84
2023/07/27 20:16:36;;;;;;;1.10;1.00;;;19.40;99.90;;;;;;4911820;29;20524;-85
2023/07/27 20:19:24;;;;;;;1.30;1.00;;;19.40;99.90;;;;;;4905099;29;20533;-81
2023/07/27 20:24:15;;;;;;;;;;;;;;;;;;;;;
2023/07/27 20:30:42;;;;;;;1.23;1.13;;;19.40;99.90;;;;;;4873761;29;21394;-82
2023/07/27 20:34:25;;;;;;;1.70;1.20;;;19.40;99.90;;;;;;4869808;29;21103;-83
2023/07/27 20:37:20;;;;;;;2.00;1.87;;;19.40;99.90;;;;;;4886395;29;20450;-84
2023/07/27 20:40:49;;;;;;;;;;;;;;;;;;;;;
2023/07/27 20:43:53;;;;;;;2.00;1.50;;;19.40;99.90;;;;;;4956884;28;20466;-83
2023/07/27 20:46:30;;;;;;;1.33;1.23;;;19.70;99.90;;;;;;4969949;28;20916;-86
2023/07/27 20:49:07;;;;;;;1.60;1.50;;;19.70;99.90;;;;;;4972354;28;20456;-83
2023/07/27 20:51:43;;;;;;;1.43;1.30;;;19.60;99.90;;;;;;4974489;28;21132;-84
2023/07/27 20:54:51;;;;;;;2.70;1.47;;;19.50;99.90;;;;;;4976671;28;20535;-81
2023/07/27 20:57:44;;;;;;;1.83;1.50;;;19.50;99.90;;;;;;4972995;28;20478;-83
2023/07/27 21:05:52;;;;;;;1.30;1.20;;;19.50;99.90;;;;;;4966506;28;20432;-82
2023/07/27 21:16:38;;;;;;;1.60;1.47;;;19.50;99.90;;;;;;4928268;29;20472;-81
2023/07/27 21:19:47;;;;;;;1.23;1.13;;;19.30;99.90;;;;;;4902235;29;20596;-83
2023/07/27 21:22:58;;;;;;;1.40;1.20;;;19.30;99.90;;;;;;4930136;28;20474;-83
2023/07/27 21:26:34;;;;;;;1.10;0.90;;;19.50;99.90;;;;;;4931694;29;20448;-83
2023/07/27 21:29:50;;;;;;;1.93;1.43;;;19.40;99.90;;;;;;4892644;29;20489;-83
2023/07/27 21:32:50;;;;;;;1.37;1.27;;;19.30;99.90;;;;;;4879341;29;20487;-84
2023/07/27 21:35:22;;;;;;;1.30;1.20;;;19.30;99.90;;;;;;4893146;29;20459;-83
2023/07/27 21:38:26;;;;;;;1.23;1.13;;;19.40;99.90;;;;;;4914577;29;20477;-85
2023/07/27 21:41:44;;;;;;;1.17;1.07;;;19.20;99.90;;;;;;4884187;29;20586;-82
2023/07/27 21:44:39;;;;;;;1.27;1.17;;;19.40;99.90;;;;;;4887986;29;20499;-81
2023/07/27 21:47:38;;;;;;;2.50;1.30;;;19.30;99.90;;;;;;4842833;29;21210;-85
2023/07/27 21:57:03;;;;;;;1.30;1.20;;;19.30;99.90;;;;;;4907183;28;20557;-83
2023/07/27 22:00:32;;;;;;;1.87;1.37;;;19.50;99.90;;;;;;4917883;29;20443;-81
2023/07/27 22:03:47;;;;;;;1.23;1.10;;;19.70;99.90;;;;;;5377509;23;20809;-82
2023/07/27 22:06:36;;;;;;;1.50;1.10;;;19.60;99.90;;;;;;4974834;28;21043;-84
2023/07/27 22:13:23;;;;;;;;;;;;;;;;;;;;;
2023/07/27 22:20:19;;;;;;;;;;;;;;;;;;;;;
2023/07/27 22:23:28;;;;;;;;;;;;;;;;;;;;;
2023/07/27 22:30:24;;;;;;;1.47;1.20;;;19.60;99.90;;;;;;4851264;29;20455;-83
2023/07/27 22:34:07;;;;;;;;;;;;;;;;;;;;;
2023/07/27 22:41:16;;;;;;;2.00;1.13;;;19.40;99.90;;;;;;4765958;29;21229;-84
2023/07/27 22:44:28;;;;;;;3.33;1.20;;;19.50;99.90;;;;;;4780780;29;20540;-83
2023/07/27 22:48:00;;;;;;;1.43;1.20;;;19.40;99.90;;;;;;4766774;30;20430;-85
2023/07/27 22:52:31;;;;;;;;;;;;;;;;;;;;;
2023/07/27 22:55:42;;;;;;;;;;;;;;;;;;;;;
2023/07/27 22:59:45;;;;;;;2.77;1.20;;;19.40;99.90;;;;;;4732202;30;20528;-84
2023/07/27 23:06:00;;;;;;;3.30;1.17;;;19.40;99.90;;;;;;5013049;23;20523;-81
2023/07/27 23:08:56;;;;;;;2.60;1.73;;;19.20;99.90;;;;;;4966001;28;20479;-83
2023/07/27 23:12:33;;;;;;;2.10;0.97;;;19.10;99.90;;;;;;4915705;29;20558;-84
2023/07/27 23:15:51;;;;;;;1.40;1.27;;;19.00;99.90;;;;;;4909541;29;20478;-81
2023/07/27 23:18:56;;;;;;;2.70;1.60;;;18.80;99.90;;;;;;4898123;29;20451;-84
2023/07/27 23:21:55;;;;;;;3.23;1.37;;;18.80;99.90;;;;;;4894316;29;20524;-82
2023/07/27 23:25:20;;;;;;;3.87;1.40;;;19.30;99.90;;;;;;4882533;29;20522;-83
2023/07/27 23:29:03;;;;;;;;;;;;;;;;;;;;;
2023/07/27 23:35:47;;;;;;;1.50;1.17;;;19.30;99.90;;;;;;4890809;29;20444;-85
